Time;durP1;ratioP1;P1;durP2;ratioP2;P2;SDS_P1;SDS_P2;PMS_P1;PMS_P2;Temp;Humidity;BMP_temperature;BMP_pressure;BME280_temperature;BME280_humidity;BME280_pressure;Samples;Min_cycle;Max_cycle;Signal;HPM_P1;HPM_P2
2023/01/24 00:01:11;;;;;;;46.30;24.67;;;2.80;99.90;;;;;;5035681;28;20200;-62
2023/01/24 00:03:42;;;;;;;43.70;23.97;;;2.70;99.90;;;;;;5018541;28;20663;-62
2023/01/24 00:06:11;;;;;;;45.13;23.83;;;2.80;99.90;;;;;;5021572;28;20196;-62
2023/01/24 00:08:39;;;;;;;43.43;23.90;;;2.80;99.90;;;;;;5016454;28;20259;-65
2023/01/24 00:11:10;;;;;;;41.97;22.67;;;2.80;99.90;;;;;;5027920;28;20193;-63
2023/01/24 00:13:39;;;;;;;44.57;24.37;;;2.80;99.90;;;;;;5023542;28;20567;-63
2023/01/24 00:16:10;;;;;;;40.27;23.13;;;2.80;99.90;;;;;;5023481;28;20659;-63
2023/01/24 00:18:39;;;;;;;42.53;23.53;;;2.80;99.90;;;;;;5032565;28;20224;-63
2023/01/24 00:21:12;;;;;;;45.23;23.30;;;2.80;99.90;;;;;;5027402;28;20194;-63
2023/01/24 00:23:40;;;;;;;39.83;22.30;;;2.80;99.90;;;;;;5025630;28;20209;-63
2023/01/24 00:26:10;;;;;;;47.10;24.17;;;2.70;99.90;;;;;;5026369;28;20193;-62
2023/01/24 00:28:38;;;;;;;41.57;22.03;;;2.70;99.90;;;;;;5035139;28;20208;-63
2023/01/24 00:31:07;;;;;;;42.43;22.83;;;2.70;99.90;;;;;;5033288;28;20189;-63
2023/01/24 00:33:35;;;;;;;39.93;22.63;;;2.70;99.90;;;;;;5033468;28;20194;-63
2023/01/24 00:36:04;;;;;;;42.23;22.93;;;2.70;99.90;;;;;;5029576;28;20335;-63
2023/01/24 00:38:34;;;;;;;35.73;21.37;;;2.70;99.90;;;;;;5031847;28;20307;-63
2023/01/24 00:41:02;;;;;;;39.77;22.10;;;2.70;99.90;;;;;;5027276;28;20197;-63
2023/01/24 00:43:31;;;;;;;36.80;20.33;;;2.70;99.90;;;;;;5020470;28;20671;-62
2023/01/24 00:45:59;;;;;;;36.87;20.43;;;2.70;99.90;;;;;;5027134;28;20189;-62
2023/01/24 00:48:28;;;;;;;38.17;21.07;;;2.70;99.90;;;;;;5021806;28;20190;-63
2023/01/24 00:50:56;;;;;;;40.17;21.57;;;2.60;99.90;;;;;;5023104;28;20592;-62
2023/01/24 00:53:25;;;;;;;35.57;20.00;;;2.70;99.90;;;;;;5020792;28;20193;-62
2023/01/24 00:55:55;;;;;;;36.93;21.07;;;2.70;99.90;;;;;;5028838;28;20281;-62
2023/01/24 00:58:24;;;;;;;39.70;21.63;;;2.70;99.90;;;;;;5026500;28;20221;-63
2023/01/24 01:00:55;;;;;;;37.40;20.00;;;2.70;99.90;;;;;;5022059;28;20205;-63
2023/01/24 01:03:24;;;;;;;34.90;20.90;;;2.70;99.90;;;;;;5027550;28;20204;-62
2023/01/24 01:05:58;;;;;;;36.97;22.37;;;2.70;99.90;;;;;;5030213;28;20209;-62
2023/01/24 01:08:27;;;;;;;37.23;21.87;;;2.70;99.90;;;;;;5019326;28;20332;-62
2023/01/24 01:10:57;;;;;;;39.20;22.30;;;2.70;99.90;;;;;;5029296;28;20197;-62
2023/01/24 01:13:26;;;;;;;37.73;22.53;;;2.70;99.90;;;;;;5029407;28;20210;-63
2023/01/24 01:16:01;;;;;;;39.07;21.50;;;2.60;99.90;;;;;;5025720;28;20190;-63
2023/01/24 01:18:30;;;;;;;39.67;22.33;;;2.60;99.90;;;;;;5027324;28;20224;-63
2023/01/24 01:20:59;;;;;;;40.03;22.43;;;2.60;99.90;;;;;;5027199;28;20188;-62
2023/01/24 01:23:28;;;;;;;39.57;22.43;;;2.70;99.90;;;;;;5029332;28;20210;-63
2023/01/24 01:26:01;;;;;;;38.83;22.10;;;2.70;99.90;;;;;;5023463;28;20193;-63
2023/01/24 01:28:30;;;;;;;40.50;22.73;;;2.60;99.90;;;;;;5025694;28;20205;-62
2023/01/24 01:30:58;;;;;;;40.60;23.87;;;2.70;99.90;;;;;;5015967;28;20204;-63
2023/01/24 01:33:27;;;;;;;41.07;22.93;;;2.70;99.90;;;;;;5019573;28;20226;-62
2023/01/24 01:35:55;;;;;;;38.23;22.53;;;2.70;99.90;;;;;;5026618;28;20570;-63
2023/01/24 01:38:27;;;;;;;41.27;22.93;;;2.70;99.90;;;;;;5028972;28;20209;-63
2023/01/24 01:40:56;;;;;;;41.70;22.10;;;2.60;99.90;;;;;;5018684;28;20647;-62
2023/01/24 01:43:28;;;;;;;45.30;23.70;;;2.60;99.90;;;;;;5039077;28;20229;-63
2023/01/24 01:46:00;;;;;;;40.27;22.57;;;2.60;99.90;;;;;;5021419;28;20224;-62
2023/01/24 01:48:37;;;;;;;40.27;22.07;;;2.60;99.90;;;;;;5030246;28;20193;-63
2023/01/24 01:51:12;;;;;;;39.40;21.20;;;2.60;99.90;;;;;;5028396;28;20295;-63
2023/01/24 01:53:46;;;;;;;38.17;22.23;;;2.60;99.90;;;;;;5025627;28;20193;-63
2023/01/24 01:56:21;;;;;;;40.57;21.67;;;2.70;99.90;;;;;;5029881;28;20192;-63
2023/01/24 01:58:52;;;;;;;42.77;24.20;;;2.60;99.90;;;;;;5016361;28;20687;-63
2023/01/24 02:01:21;;;;;;;44.43;23.93;;;2.60;99.90;;;;;;5024766;28;20213;-63
2023/01/24 02:03:57;;;;;;;41.77;24.00;;;2.60;99.90;;;;;;5024250;28;20194;-63
2023/01/24 02:06:44;;;;;;;43.40;23.13;;;2.60;99.90;;;;;;5030010;28;20224;-62
2023/01/24 02:09:16;;;;;;;40.60;22.83;;;2.60;99.90;;;;;;5021972;28;20202;-62
2023/01/24 02:11:45;;;;;;;42.00;23.23;;;2.60;99.90;;;;;;5019962;28;20209;-62
2023/01/24 02:17:06;;;;;;;39.00;21.73;;;2.60;99.90;;;;;;5021382;28;20200;-62
2023/01/24 02:19:53;;;;;;;39.67;21.80;;;2.60;99.90;;;;;;5021221;28;20194;-63
2023/01/24 02:22:28;;;;;;;40.00;22.60;;;2.60;99.90;;;;;;5024775;28;20197;-63
2023/01/24 02:25:07;;;;;;;38.23;21.87;;;2.60;99.90;;;;;;5022856;28;20298;-62
2023/01/24 02:27:37;;;;;;;38.27;22.50;;;2.60;99.90;;;;;;5025611;28;20221;-63
2023/01/24 02:30:06;;;;;;;38.70;21.73;;;2.60;99.90;;;;;;5015629;28;20200;-63
2023/01/24 02:32:34;;;;;;;40.00;22.73;;;2.60;99.90;;;;;;5020729;28;20201;-63
2023/01/24 02:35:04;;;;;;;43.30;23.40;;;2.60;99.90;;;;;;5026208;28;20194;-63
2023/01/24 02:37:33;;;;;;;44.90;23.73;;;2.60;99.90;;;;;;5026502;28;20213;-63
2023/01/24 02:40:06;;;;;;;41.73;23.03;;;2.60;99.90;;;;;;5026768;28;20202;-63
2023/01/24 02:42:37;;;;;;;38.97;23.10;;;2.60;99.90;;;;;;5027471;28;20230;-63
2023/01/24 02:45:10;;;;;;;39.63;23.40;;;2.60;99.90;;;;;;5025736;28;20189;-63
2023/01/24 02:47:44;;;;;;;42.13;23.30;;;2.60;99.90;;;;;;5017998;28;20197;-62
2023/01/24 02:50:13;;;;;;;40.77;23.37;;;2.60;99.90;;;;;;5023061;28;20193;-62
2023/01/24 02:55:27;;;;;;;41.07;22.73;;;2.60;99.90;;;;;;5020941;28;20209;-62
2023/01/24 02:58:08;;;;;;;42.97;24.03;;;2.60;99.90;;;;;;5027405;28;20220;-63
2023/01/24 03:00:39;;;;;;;46.97;24.17;;;2.50;99.90;;;;;;5026371;28;20221;-63
2023/01/24 03:03:10;;;;;;;42.33;23.87;;;2.50;99.90;;;;;;5020488;28;20267;-62
2023/01/24 03:05:56;;;;;;;41.30;24.23;;;2.50;99.90;;;;;;5023488;28;20205;-62
2023/01/24 03:08:25;;;;;;;40.47;22.90;;;2.60;99.90;;;;;;5018253;28;20588;-63
2023/01/24 03:10:54;;;;;;;43.93;23.50;;;2.60;99.90;;;;;;5020826;28;20567;-63
2023/01/24 03:35:38;;;;;;;35.33;20.57;;;2.50;99.90;;;;;;5026596;28;20207;-62
2023/01/24 03:40:53;;;;;;;42.07;22.43;;;2.60;99.90;;;;;;5027613;28;20239;-63
2023/01/24 03:43:21;;;;;;;39.47;21.73;;;2.60;99.90;;;;;;5024530;28;20217;-62
2023/01/24 03:45:54;;;;;;;39.77;20.90;;;2.50;99.90;;;;;;5024070;28;20221;-63
2023/01/24 03:48:26;;;;;;;43.10;22.00;;;2.50;99.90;;;;;;5019677;28;20243;-63
2023/01/24 03:53:41;;;;;;;38.07;21.00;;;2.60;99.90;;;;;;5024585;28;20205;-62
2023/01/24 03:56:09;;;;;;;37.77;20.47;;;2.50;99.90;;;;;;5029023;28;20196;-63
2023/01/24 03:58:37;;;;;;;36.40;19.67;;;2.50;99.90;;;;;;5028124;28;20216;-63
2023/01/24 04:01:07;;;;;;;38.60;21.17;;;2.60;99.90;;;;;;5016581;28;20198;-63
2023/01/24 04:03:35;;;;;;;37.63;20.33;;;2.60;99.90;;;;;;5024134;28;20235;-63
2023/01/24 04:06:04;;;;;;;40.07;20.67;;;2.60;99.90;;;;;;5023949;28;20189;-63
2023/01/24 04:08:32;;;;;;;34.47;19.83;;;2.60;99.90;;;;;;5027370;28;20228;-62
2023/01/24 04:11:01;;;;;;;38.37;20.90;;;2.60;99.90;;;;;;5024378;28;20216;-63
2023/01/24 04:13:29;;;;;;;36.93;20.77;;;2.50;99.90;;;;;;5027967;28;20251;-63
2023/01/24 04:15:57;;;;;;;36.63;20.60;;;2.50;99.90;;;;;;5025293;28;20198;-63
2023/01/24 04:18:27;;;;;;;36.63;20.30;;;2.50;99.90;;;;;;5019507;28;20209;-63
2023/01/24 04:20:55;;;;;;;35.17;19.90;;;2.50;99.90;;;;;;5015463;28;20422;-63
2023/01/24 04:23:24;;;;;;;40.03;21.50;;;2.60;99.90;;;;;;5020982;28;20636;-63
2023/01/24 04:25:54;;;;;;;34.50;20.10;;;2.60;99.90;;;;;;5023432;28;20202;-65
2023/01/24 04:28:23;;;;;;;38.93;20.57;;;2.60;99.90;;;;;;5036872;28;20190;-63
2023/01/24 04:30:58;;;;;;;37.80;20.63;;;2.60;99.90;;;;;;5023227;28;20560;-63
2023/01/24 04:33:28;;;;;;;36.40;20.03;;;2.60;99.90;;;;;;5027087;28;20583;-63
2023/01/24 04:36:00;;;;;;;40.63;22.30;;;2.50;99.90;;;;;;5016034;28;20194;-63
2023/01/24 04:38:29;;;;;;;36.90;20.90;;;2.50;99.90;;;;;;5026826;28;20218;-63
2023/01/24 04:40:59;;;;;;;37.43;21.20;;;2.60;99.90;;;;;;5020675;28;20205;-63
2023/01/24 04:43:28;;;;;;;34.83;20.43;;;2.60;99.90;;;;;;5015087;28;20624;-63
2023/01/24 04:45:57;;;;;;;37.60;20.57;;;2.50;99.90;;;;;;5029645;28;20206;-63
2023/01/24 04:48:27;;;;;;;36.53;20.23;;;2.60;99.90;;;;;;5014057;28;20200;-63
2023/01/24 04:50:59;;;;;;;42.37;21.87;;;2.60;99.90;;;;;;5027154;28;20225;-62
2023/01/24 04:53:30;;;;;;;36.57;20.90;;;2.50;99.90;;;;;;5015723;28;20663;-63
2023/01/24 04:56:01;;;;;;;37.63;21.73;;;2.50;99.90;;;;;;5026887;28;20211;-62
2023/01/24 04:58:30;;;;;;;39.63;21.87;;;2.50;99.90;;;;;;5022993;28;20590;-62
2023/01/24 05:00:58;;;;;;;36.80;20.67;;;2.50;99.90;;;;;;5030620;28;20194;-63
2023/01/24 05:03:29;;;;;;;37.13;20.63;;;2.50;99.90;;;;;;5025152;28;20832;-63
2023/01/24 05:05:57;;;;;;;37.03;21.27;;;2.50;99.90;;;;;;5035749;28;20189;-63
2023/01/24 05:08:26;;;;;;;40.20;22.73;;;2.50;99.90;;;;;;5028176;28;20300;-63
2023/01/24 05:10:56;;;;;;;35.47;20.67;;;2.50;99.90;;;;;;5024272;28;20709;-63
2023/01/24 05:13:25;;;;;;;38.50;21.67;;;2.50;99.90;;;;;;5026727;28;20664;-62
2023/01/24 05:15:53;;;;;;;39.80;22.37;;;2.50;99.90;;;;;;5017822;28;20201;-62
2023/01/24 05:18:22;;;;;;;38.90;21.63;;;2.50;99.90;;;;;;5006568;28;20193;-63
2023/01/24 05:20:51;;;;;;;39.77;21.87;;;2.50;99.90;;;;;;5020374;28;20229;-63
2023/01/24 05:23:20;;;;;;;40.67;21.63;;;2.40;99.90;;;;;;5030041;28;20197;-62
2023/01/24 05:25:48;;;;;;;37.30;21.67;;;2.40;99.90;;;;;;5017667;28;20552;-63
2023/01/24 05:28:16;;;;;;;40.63;22.13;;;2.40;99.90;;;;;;5026781;28;20532;-62
2023/01/24 05:30:44;;;;;;;37.93;20.73;;;2.40;99.90;;;;;;5016469;28;20675;-63
2023/01/24 05:33:13;;;;;;;38.87;21.83;;;2.40;99.90;;;;;;5025103;28;20236;-63
2023/01/24 05:35:43;;;;;;;38.30;22.20;;;2.40;99.90;;;;;;5026936;28;20632;-62
2023/01/24 05:38:13;;;;;;;39.97;21.53;;;2.40;99.90;;;;;;5027343;28;20289;-62
2023/01/24 05:40:41;;;;;;;40.03;21.07;;;2.40;99.90;;;;;;5024284;28;20218;-63
2023/01/24 05:43:09;;;;;;;36.80;20.87;;;2.40;99.90;;;;;;5025905;28;20218;-63
2023/01/24 05:45:37;;;;;;;39.90;21.47;;;2.40;99.90;;;;;;5045130;28;20545;-63
2023/01/24 05:48:06;;;;;;;37.43;21.07;;;2.40;99.90;;;;;;5025194;28;20649;-62
2023/01/24 05:50:35;;;;;;;35.77;20.07;;;2.40;99.90;;;;;;5018538;28;20206;-63
2023/01/24 05:53:04;;;;;;;37.43;20.23;;;2.40;99.90;;;;;;5019918;28;20191;-63
2023/01/24 05:55:33;;;;;;;39.43;21.27;;;2.40;99.90;;;;;;5030483;28;20667;-63
2023/01/24 05:58:02;;;;;;;34.30;20.57;;;2.40;99.90;;;;;;5017739;28;20626;-63
2023/01/24 06:00:30;;;;;;;39.67;21.90;;;2.40;99.90;;;;;;5016349;28;20220;-62
2023/01/24 06:03:03;;;;;;;36.83;21.07;;;2.40;99.90;;;;;;5025460;28;20971;-63
2023/01/24 06:05:31;;;;;;;37.80;20.63;;;2.40;99.90;;;;;;5045696;28;20205;-63
2023/01/24 06:08:00;;;;;;;40.63;21.87;;;2.40;99.90;;;;;;5019192;28;20668;-63
2023/01/24 06:10:28;;;;;;;41.30;22.33;;;2.40;99.90;;;;;;5021533;28;20195;-62
2023/01/24 06:13:00;;;;;;;39.00;21.77;;;2.40;99.90;;;;;;5021129;28;20193;-62
2023/01/24 06:15:29;;;;;;;40.03;22.03;;;2.40;99.90;;;;;;5022602;28;20197;-63
2023/01/24 06:17:57;;;;;;;38.97;22.00;;;2.40;99.90;;;;;;5026055;28;20268;-63
2023/01/24 06:20:26;;;;;;;38.33;22.13;;;2.40;99.90;;;;;;5043558;28;20224;-62
2023/01/24 06:23:00;;;;;;;39.90;22.10;;;2.30;99.90;;;;;;5017702;28;20198;-62
2023/01/24 06:25:28;;;;;;;38.60;22.03;;;2.40;99.90;;;;;;5027011;28;20207;-63
2023/01/24 06:27:58;;;;;;;39.97;22.07;;;2.40;99.90;;;;;;5016099;28;20198;-63
2023/01/24 06:30:27;;;;;;;39.20;21.83;;;2.30;99.90;;;;;;5036998;28;20190;-62
2023/01/24 06:33:17;;;;;;;42.43;22.43;;;2.30;99.90;;;;;;5029123;28;20189;-62
2023/01/24 06:36:02;;;;;;;40.20;21.97;;;2.30;99.90;;;;;;5017374;28;20539;-65
2023/01/24 06:38:31;;;;;;;38.27;21.43;;;2.30;99.90;;;;;;5018195;28;20198;-62
2023/01/24 06:41:02;;;;;;;43.40;22.13;;;2.30;99.90;;;;;;5018552;28;20240;-62
2023/01/24 06:43:32;;;;;;;36.80;20.97;;;2.30;99.90;;;;;;5023709;28;20221;-62
2023/01/24 06:46:01;;;;;;;39.90;21.63;;;2.30;99.90;;;;;;5027246;28;20198;-62
2023/01/24 06:48:29;;;;;;;41.80;21.70;;;2.30;99.90;;;;;;5018617;28;20263;-62
2023/01/24 06:50:57;;;;;;;44.83;21.57;;;2.30;99.90;;;;;;5021495;28;20189;-62
2023/01/24 06:53:26;;;;;;;38.23;22.13;;;2.30;99.90;;;;;;5022808;28;20200;-63
2023/01/24 06:55:54;;;;;;;39.23;20.87;;;2.30;99.90;;;;;;5019474;28;20202;-63
2023/01/24 06:58:23;;;;;;;37.87;21.13;;;2.30;99.90;;;;;;5026384;28;20551;-63
2023/01/24 07:00:54;;;;;;;38.83;21.47;;;2.30;99.90;;;;;;5018498;28;20213;-63
2023/01/24 07:03:22;;;;;;;38.93;21.00;;;2.30;99.90;;;;;;5025659;28;20189;-62
2023/01/24 07:05:50;;;;;;;37.03;20.47;;;2.30;99.90;;;;;;5029484;28;20220;-63
2023/01/24 07:08:20;;;;;;;39.03;20.63;;;2.30;99.90;;;;;;5017319;28;20240;-62
2023/01/24 07:10:49;;;;;;;37.77;20.63;;;2.30;99.90;;;;;;5016818;28;20524;-62
2023/01/24 07:13:17;;;;;;;38.67;20.93;;;2.30;99.90;;;;;;5031653;28;20225;-62
2023/01/24 07:15:46;;;;;;;36.60;20.83;;;2.30;99.90;;;;;;5025841;28;20240;-63
2023/01/24 07:18:19;;;;;;;40.00;21.63;;;2.30;99.90;;;;;;5023912;28;20628;-63
2023/01/24 07:20:48;;;;;;;38.80;21.27;;;2.20;99.90;;;;;;5028177;28;20224;-62
2023/01/24 07:23:23;;;;;;;38.60;21.27;;;2.20;99.90;;;;;;5025534;28;20201;-63
2023/01/24 07:25:52;;;;;;;37.90;21.47;;;2.20;99.90;;;;;;5023621;28;20204;-63
2023/01/24 07:28:21;;;;;;;38.63;20.97;;;2.20;99.90;;;;;;5020527;28;20272;-63
2023/01/24 07:30:50;;;;;;;42.53;22.60;;;2.30;99.90;;;;;;5018690;28;20186;-63
2023/01/24 07:33:19;;;;;;;38.23;21.13;;;2.20;99.90;;;;;;5019292;28;20232;-62
2023/01/24 07:35:48;;;;;;;37.60;21.03;;;2.30;99.90;;;;;;5027283;28;20209;-62
2023/01/24 07:38:16;;;;;;;39.20;21.57;;;2.30;99.90;;;;;;5023754;28;20672;-62
2023/01/24 07:40:45;;;;;;;39.03;21.03;;;2.30;99.90;;;;;;5018560;28;20208;-63
2023/01/24 07:43:14;;;;;;;38.10;21.07;;;2.30;99.90;;;;;;5015412;28;20222;-62
2023/01/24 07:45:46;;;;;;;37.47;20.47;;;2.30;99.90;;;;;;5023260;28;20536;-63
2023/01/24 07:48:14;;;;;;;38.90;21.63;;;2.30;99.90;;;;;;5015972;28;20206;-63
2023/01/24 07:50:44;;;;;;;42.67;21.63;;;2.30;99.90;;;;;;5019744;28;20201;-62
2023/01/24 07:53:12;;;;;;;37.77;21.13;;;2.30;99.90;;;;;;5024726;28;20198;-63
2023/01/24 07:55:40;;;;;;;36.33;21.00;;;2.30;99.90;;;;;;5030438;28;20201;-63
2023/01/24 07:58:17;;;;;;;39.40;20.77;;;2.30;99.90;;;;;;5018236;28;20650;-63
2023/01/24 08:00:45;;;;;;;40.83;22.30;;;2.30;99.90;;;;;;5022138;28;20209;-62
2023/01/24 08:03:13;;;;;;;42.03;21.17;;;2.30;99.90;;;;;;5030784;28;20197;-63
2023/01/24 08:05:43;;;;;;;42.83;21.47;;;2.30;99.90;;;;;;5018317;28;20257;-63
2023/01/24 08:08:11;;;;;;;40.47;22.43;;;2.30;99.90;;;;;;5027953;28;20233;-62
2023/01/24 08:10:40;;;;;;;38.47;22.03;;;2.30;99.90;;;;;;5028441;28;20197;-63
2023/01/24 08:13:08;;;;;;;39.53;21.23;;;2.30;99.90;;;;;;5028898;28;20193;-62
2023/01/24 08:15:36;;;;;;;41.40;22.87;;;2.20;99.90;;;;;;5021869;28;20971;-63
2023/01/24 08:18:05;;;;;;;39.10;21.80;;;2.20;99.90;;;;;;5028806;28;20194;-63
2023/01/24 08:20:33;;;;;;;38.20;21.23;;;2.20;99.90;;;;;;5023733;28;20205;-62
2023/01/24 08:23:03;;;;;;;44.27;22.97;;;2.20;99.90;;;;;;5030561;28;20194;-63
2023/01/24 08:25:31;;;;;;;41.37;22.10;;;2.20;99.90;;;;;;5033236;28;20193;-63
2023/01/24 08:28:00;;;;;;;41.50;22.00;;;2.20;99.90;;;;;;5020819;28;20206;-62
2023/01/24 08:30:29;;;;;;;42.27;23.17;;;2.20;99.90;;;;;;5030906;28;20205;-62
2023/01/24 08:33:01;;;;;;;41.63;22.80;;;2.20;99.90;;;;;;5032600;28;20198;-63
2023/01/24 08:35:33;;;;;;;42.80;23.13;;;2.30;99.90;;;;;;5025409;28;20268;-62
2023/01/24 08:38:03;;;;;;;41.63;23.30;;;2.20;99.90;;;;;;5021791;28;20200;-62
2023/01/24 08:40:31;;;;;;;42.47;23.47;;;2.20;99.90;;;;;;5034001;28;20731;-63
2023/01/24 08:43:15;;;;;;;41.93;23.57;;;2.20;99.90;;;;;;5020665;28;20296;-62
2023/01/24 08:45:43;;;;;;;45.73;24.37;;;2.20;99.90;;;;;;5033246;28;20201;-63
2023/01/24 08:48:11;;;;;;;43.97;24.07;;;2.20;99.90;;;;;;5027305;28;20213;-63
2023/01/24 08:50:40;;;;;;;45.53;23.27;;;2.30;99.90;;;;;;5033798;28;20229;-62
2023/01/24 08:53:12;;;;;;;44.97;23.83;;;2.20;99.90;;;;;;5042288;28;20194;-62
2023/01/24 08:55:41;;;;;;;40.10;22.00;;;2.20;99.90;;;;;;5031101;28;20201;-64
2023/01/24 08:58:09;;;;;;;46.93;24.40;;;2.20;99.90;;;;;;5028666;28;20238;-65
2023/01/24 09:00:37;;;;;;;45.13;24.00;;;2.30;99.90;;;;;;5030974;28;20208;-65
2023/01/24 09:03:06;;;;;;;41.90;23.20;;;2.40;99.90;;;;;;5028218;28;20189;-65
2023/01/24 09:05:36;;;;;;;44.07;23.63;;;2.40;99.90;;;;;;5034515;28;20205;-64
2023/01/24 09:08:05;;;;;;;43.83;23.40;;;2.30;99.90;;;;;;5027149;28;20224;-62
2023/01/24 09:10:35;;;;;;;48.80;25.10;;;2.30;99.90;;;;;;5027120;28;20670;-64
2023/01/24 09:13:05;;;;;;;52.80;25.27;;;2.30;99.90;;;;;;5024080;28;20193;-65
2023/01/24 09:15:33;;;;;;;47.07;25.13;;;2.30;99.90;;;;;;5027089;28;20197;-64
2023/01/24 09:18:02;;;;;;;47.03;26.20;;;2.40;99.90;;;;;;5030611;28;20236;-64
2023/01/24 09:20:31;;;;;;;44.13;24.63;;;2.40;99.90;;;;;;5024941;28;20551;-65
2023/01/24 09:22:59;;;;;;;47.90;25.03;;;2.30;99.90;;;;;;5022242;28;20216;-62
2023/01/24 09:25:30;;;;;;;42.00;23.83;;;2.40;99.90;;;;;;5029085;28;20252;-62
2023/01/24 09:28:00;;;;;;;41.20;23.57;;;2.40;99.90;;;;;;5027846;28;20664;-64
2023/01/24 09:30:28;;;;;;;40.87;23.33;;;2.40;99.90;;;;;;5017823;28;20216;-65
2023/01/24 09:32:57;;;;;;;42.40;22.80;;;2.40;99.90;;;;;;5023520;28;20182;-62
2023/01/24 09:35:25;;;;;;;48.70;24.20;;;2.40;99.90;;;;;;5033243;28;20201;-65
2023/01/24 09:37:53;;;;;;;43.23;24.87;;;2.40;99.90;;;;;;5029559;28;20197;-62
2023/01/24 09:40:25;;;;;;;41.57;23.60;;;2.50;99.90;;;;;;5017983;28;20201;-65
2023/01/24 09:43:02;;;;;;;46.03;22.27;;;2.50;99.90;;;;;;5026518;28;20228;-64
2023/01/24 09:45:34;;;;;;;42.73;22.70;;;2.50;99.90;;;;;;5029433;28;22183;-62
2023/01/24 09:48:06;;;;;;;44.23;24.30;;;2.40;99.90;;;;;;5024243;28;20281;-62
2023/01/24 09:50:40;;;;;;;45.23;24.53;;;2.40;99.90;;;;;;5027388;28;20193;-62
2023/01/24 09:53:17;;;;;;;45.50;24.53;;;2.50;99.90;;;;;;5024551;28;20177;-62
2023/01/24 09:55:47;;;;;;;39.57;22.83;;;2.50;99.90;;;;;;5027728;28;20197;-65
2023/01/24 09:58:28;;;;;;;41.43;23.90;;;2.40;99.90;;;;;;5019980;28;20284;-65
2023/01/24 10:00:59;;;;;;;44.50;23.93;;;2.50;99.90;;;;;;5012810;28;20197;-64
2023/01/24 10:03:28;;;;;;;44.20;24.00;;;2.50;99.90;;;;;;5028705;28;20236;-64
2023/01/24 10:06:02;;;;;;;44.67;24.67;;;2.50;99.90;;;;;;5028316;28;20272;-63
2023/01/24 10:08:38;;;;;;;41.37;23.57;;;2.50;99.90;;;;;;5029817;28;20634;-64
2023/01/24 10:11:20;;;;;;;41.23;23.47;;;2.50;99.90;;;;;;5032070;28;20190;-64
2023/01/24 10:14:16;;;;;;;46.33;24.53;;;2.40;99.90;;;;;;5029362;28;20521;-65
2023/01/24 10:17:11;;;;;;;42.43;24.20;;;2.40;99.90;;;;;;5015374;28;20213;-62
2023/01/24 10:20:05;;;;;;;49.40;24.67;;;2.40;99.90;;;;;;4999751;28;20209;-62
2023/01/24 10:22:55;;;;;;;48.07;25.27;;;2.50;99.90;;;;;;5018826;28;20246;-62
2023/01/24 10:25:28;;;;;;;41.57;24.40;;;2.40;99.90;;;;;;5031375;28;20217;-64
2023/01/24 10:28:01;;;;;;;48.67;25.60;;;2.50;99.90;;;;;;5030580;28;20193;-64
2023/01/24 10:30:42;;;;;;;43.10;23.57;;;2.40;99.90;;;;;;5030506;28;20655;-62
2023/01/24 10:33:16;;;;;;;44.07;24.27;;;2.50;99.90;;;;;;5027315;28;20189;-62
2023/01/24 10:35:55;;;;;;;41.50;22.93;;;2.50;99.90;;;;;;5012757;28;20197;-61
2023/01/24 10:38:24;;;;;;;44.13;23.40;;;2.60;99.90;;;;;;5021737;28;20198;-62
2023/01/24 10:40:55;;;;;;;46.53;24.23;;;2.50;99.90;;;;;;5029170;28;20205;-62
2023/01/24 10:43:26;;;;;;;41.07;23.40;;;2.50;99.90;;;;;;5023439;28;20209;-62
2023/01/24 10:46:07;;;;;;;41.47;23.03;;;2.50;99.90;;;;;;5031905;28;20201;-62
2023/01/24 10:48:41;;;;;;;43.03;23.87;;;2.50;99.90;;;;;;5021684;28;20190;-65
2023/01/24 10:51:18;;;;;;;45.63;23.80;;;2.60;99.90;;;;;;5027096;28;20197;-65
2023/01/24 10:53:47;;;;;;;44.80;24.97;;;2.60;99.90;;;;;;5019846;28;20193;-62
2023/01/24 10:56:18;;;;;;;47.20;25.33;;;2.60;99.90;;;;;;5032235;28;20587;-64
2023/01/24 10:58:57;;;;;;;48.30;26.50;;;2.70;99.90;;;;;;5017702;28;20208;-64
2023/01/24 11:01:36;;;;;;;47.30;26.27;;;2.70;99.90;;;;;;5026158;28;20181;-62
2023/01/24 11:04:17;;;;;;;48.47;25.53;;;2.70;99.90;;;;;;5023739;28;20224;-62
2023/01/24 11:06:47;;;;;;;41.30;22.87;;;2.70;99.90;;;;;;5027192;28;20722;-62
2023/01/24 11:09:19;;;;;;;43.27;22.80;;;2.70;99.90;;;;;;5020606;28;20278;-62
2023/01/24 11:11:51;;;;;;;43.03;23.57;;;2.80;99.90;;;;;;5017971;28;20288;-64
2023/01/24 11:14:22;;;;;;;37.30;20.83;;;2.80;99.90;;;;;;5020614;28;20201;-64
2023/01/24 11:16:54;;;;;;;39.03;21.67;;;2.80;99.90;;;;;;5022868;28;20197;-64
2023/01/24 11:19:27;;;;;;;40.67;22.23;;;2.70;99.90;;;;;;5025100;28;20284;-64
2023/01/24 11:21:58;;;;;;;37.50;21.40;;;2.70;99.90;;;;;;5020103;28;20376;-65
2023/01/24 11:24:28;;;;;;;36.53;21.70;;;2.80;99.90;;;;;;5021067;28;20205;-64
2023/01/24 11:27:03;;;;;;;40.40;20.97;;;2.80;99.90;;;;;;5030180;28;20239;-64
2023/01/24 11:29:33;;;;;;;38.30;21.73;;;2.90;99.90;;;;;;5021428;28;20224;-65
2023/01/24 11:32:20;;;;;;;40.17;23.10;;;2.80;99.90;;;;;;5013465;28;20190;-65
2023/01/24 11:34:57;;;;;;;38.17;21.20;;;2.80;99.90;;;;;;5024527;28;20213;-64
2023/01/24 11:37:56;;;;;;;38.20;21.60;;;2.80;99.90;;;;;;5022809;28;20202;-64
2023/01/24 11:40:34;;;;;;;35.10;20.67;;;2.80;99.90;;;;;;5022997;28;20284;-65
2023/01/24 11:43:33;;;;;;;38.53;22.17;;;2.80;99.90;;;;;;5024033;28;20223;-64
2023/01/24 11:46:21;;;;;;;38.87;21.60;;;2.90;99.90;;;;;;5019069;28;20197;-62
2023/01/24 11:48:54;;;;;;;40.10;21.60;;;2.80;99.90;;;;;;5019811;28;20210;-62
2023/01/24 11:51:39;;;;;;;37.07;22.60;;;2.80;99.90;;;;;;5016257;28;20218;-65
2023/01/24 11:54:37;;;;;;;39.90;22.17;;;2.70;99.90;;;;;;5024662;28;20635;-64
2023/01/24 11:57:15;;;;;;;38.00;22.03;;;2.80;99.90;;;;;;5023952;28;20212;-62
2023/01/24 12:00:00;;;;;;;35.53;21.97;;;2.80;99.90;;;;;;5039789;28;20193;-64
2023/01/24 12:02:42;;;;;;;42.00;22.43;;;2.90;99.90;;;;;;5020927;28;20233;-64
2023/01/24 12:05:28;;;;;;;40.13;23.10;;;2.90;99.90;;;;;;5027396;28;20204;-65
2023/01/24 12:08:11;;;;;;;42.13;22.40;;;2.80;99.90;;;;;;5030859;28;20228;-62
2023/01/24 12:10:53;;;;;;;38.33;22.20;;;2.80;99.90;;;;;;5022521;28;20208;-62
2023/01/24 12:13:47;;;;;;;39.73;23.03;;;2.80;99.90;;;;;;5028179;28;20247;-64
2023/01/24 12:16:27;;;;;;;40.40;22.03;;;2.90;99.90;;;;;;5020881;28;20203;-65
2023/01/24 12:19:24;;;;;;;36.87;21.50;;;2.90;99.90;;;;;;5024051;28;20280;-62
2023/01/24 12:21:56;;;;;;;40.50;21.23;;;3.10;99.90;;;;;;5030918;28;20220;-65
2023/01/24 12:24:28;;;;;;;36.37;21.40;;;3.10;99.90;;;;;;5019973;28;20202;-65
2023/01/24 12:27:01;;;;;;;42.10;22.33;;;3.20;99.90;;;;;;5023205;28;20232;-65
2023/01/24 12:29:34;;;;;;;44.67;23.27;;;3.10;99.90;;;;;;5029435;28;20202;-65
2023/01/24 12:32:08;;;;;;;34.67;21.13;;;3.10;99.90;;;;;;5027636;28;20193;-65
2023/01/24 12:34:46;;;;;;;42.20;22.63;;;3.20;99.90;;;;;;5029812;28;20202;-65
2023/01/24 12:37:24;;;;;;;37.53;22.70;;;3.20;99.90;;;;;;5024866;28;20648;-62
2023/01/24 12:40:00;;;;;;;38.13;22.27;;;3.20;99.90;;;;;;5020486;28;20580;-64
2023/01/24 12:42:45;;;;;;;39.83;22.53;;;3.10;99.90;;;;;;5030203;28;20237;-64
2023/01/24 12:45:19;;;;;;;37.87;22.10;;;3.10;99.90;;;;;;5047551;28;20196;-64
2023/01/24 12:47:52;;;;;;;40.93;22.10;;;3.10;99.90;;;;;;5021905;28;20220;-64
2023/01/24 12:50:26;;;;;;;39.70;22.57;;;3.10;99.90;;;;;;5029788;28;20197;-65
2023/01/24 12:53:06;;;;;;;42.83;22.23;;;3.10;99.90;;;;;;5028345;28;20640;-65
2023/01/24 12:55:41;;;;;;;40.73;23.07;;;3.10;99.90;;;;;;5023379;28;20648;-62
2023/01/24 12:58:18;;;;;;;38.70;22.50;;;3.00;99.90;;;;;;5030241;28;20251;-65
2023/01/24 13:00:58;;;;;;;39.20;22.23;;;3.00;99.90;;;;;;5023736;28;20197;-64
2023/01/24 13:03:48;;;;;;;35.97;21.50;;;3.00;99.90;;;;;;5022185;28;20564;-64
2023/01/24 13:06:28;;;;;;;39.10;22.50;;;3.00;99.90;;;;;;5018850;28;20196;-65
2023/01/24 13:09:08;;;;;;;38.50;21.90;;;3.00;99.90;;;;;;5028084;28;20220;-62
2023/01/24 13:11:44;;;;;;;39.53;22.80;;;3.10;99.90;;;;;;5028773;28;20308;-62
2023/01/24 13:14:21;;;;;;;40.70;22.50;;;3.10;99.90;;;;;;5015005;28;20198;-62
2023/01/24 13:17:05;;;;;;;38.23;22.27;;;3.10;99.90;;;;;;5022101;28;20209;-65
2023/01/24 13:19:54;;;;;;;37.50;21.90;;;3.20;99.90;;;;;;5021604;28;20563;-64
2023/01/24 13:22:41;;;;;;;38.53;21.00;;;3.20;99.90;;;;;;5030316;28;20206;-65
2023/01/24 13:25:34;;;;;;;39.60;22.27;;;3.30;99.90;;;;;;5021246;28;20217;-65
2023/01/24 13:28:12;;;;;;;45.30;23.00;;;3.30;99.90;;;;;;5026073;28;20704;-64
2023/01/24 13:30:49;;;;;;;38.83;21.53;;;3.30;99.90;;;;;;5031679;28;20215;-65
2023/01/24 13:33:23;;;;;;;36.43;21.23;;;3.30;99.90;;;;;;5025318;28;20228;-64
2023/01/24 13:35:53;;;;;;;41.03;22.17;;;3.30;99.90;;;;;;5020134;28;20200;-64